Time;durP1;ratioP1;P1;durP2;ratioP2;P2;SDS_P1;SDS_P2;PMS_P1;PMS_P2;Temp;Humidity;BMP_temperature;BMP_pressure;BME280_temperature;BME280_humidity;BME280_pressure;Samples;Min_cycle;Max_cycle;Signal;HPM_P1;HPM_P2
2021/11/25 00:00:45;;;;;;;7.60;5.90;;;;;;;6.23;73.54;101538.19;4973041;28;20208;-75
2021/11/25 00:03:10;;;;;;;7.90;6.13;;;;;;;6.24;73.65;101525.56;4973256;28;20184;-74
2021/11/25 00:05:37;;;;;;;7.63;6.40;;;;;;;6.23;74.04;101539.09;4971924;28;20219;-75
2021/11/25 00:08:04;;;;;;;9.60;7.10;;;;;;;6.24;75.20;101537.38;4971060;28;20655;-75
2021/11/25 00:10:30;;;;;;;9.20;7.87;;;;;;;6.21;74.87;101529.63;4972797;28;20271;-75
2021/11/25 00:12:56;;;;;;;9.47;7.70;;;;;;;6.23;76.12;101522.94;4973053;28;20188;-75
2021/11/25 00:15:22;;;;;;;9.70;8.20;;;;;;;6.22;75.93;101521.22;4972896;28;20173;-75
2021/11/25 00:17:49;;;;;;;10.87;8.40;;;;;;;6.19;76.59;101509.22;4972781;28;20204;-74
2021/11/25 00:20:15;;;;;;;9.63;8.63;;;;;;;6.18;77.13;101506.59;4972464;28;20215;-75
2021/11/25 00:22:42;;;;;;;10.40;8.97;;;;;;;6.20;76.35;101508.41;4955024;28;20328;-75
2021/11/25 00:25:09;;;;;;;11.00;8.57;;;;;;;6.17;75.39;101499.78;4972758;28;20677;-75
2021/11/25 00:27:34;;;;;;;10.27;7.93;;;;;;;6.17;74.63;101500.63;4972740;28;20189;-75
2021/11/25 00:30:00;;;;;;;12.40;10.17;;;;;;;6.20;75.43;101502.44;4954928;28;20356;-75
2021/11/25 00:32:25;;;;;;;10.47;9.37;;;;;;;6.18;75.88;101507.44;4972601;28;20190;-75
2021/11/25 00:34:51;;;;;;;14.27;10.17;;;;;;;6.15;75.74;101504.78;4970929;28;20272;-75
2021/11/25 00:37:16;;;;;;;11.47;9.70;;;;;;;6.13;75.94;101503.81;4971951;28;20184;-75
2021/11/25 00:39:42;;;;;;;11.20;9.53;;;;;;;6.14;77.19;101500.50;4972209;28;20220;-75
2021/11/25 00:42:08;;;;;;;13.57;10.10;;;;;;;6.14;77.92;101502.16;4987451;28;20839;-75
2021/11/25 00:44:33;;;;;;;16.07;10.60;;;;;;;6.13;77.94;101495.34;4970960;28;20296;-75
2021/11/25 00:46:59;;;;;;;12.77;10.27;;;;;;;6.11;77.78;101491.84;4971125;28;20329;-76
2021/11/25 00:49:24;;;;;;;13.47;9.83;;;;;;;6.09;78.38;101488.38;4970532;28;20212;-75
2021/11/25 00:51:50;;;;;;;12.30;9.57;;;;;;;6.09;78.73;101481.63;4971892;28;20220;-76
2021/11/25 00:54:15;;;;;;;12.70;9.73;;;;;;;6.09;78.27;101480.75;4972279;28;20641;-76
2021/11/25 00:56:41;;;;;;;13.23;10.40;;;;;;;6.06;79.17;101478.03;4972311;28;20190;-76
2021/11/25 00:59:07;;;;;;;12.13;9.97;;;;;;;6.03;78.84;101476.22;4971786;28;20216;-75
2021/11/25 01:01:33;;;;;;;12.70;9.83;;;;;;;6.06;79.03;101478.94;4972281;28;20669;-76
2021/11/25 01:03:58;;;;;;;11.80;9.27;;;;;;;6.06;79.63;101468.75;4972101;28;20219;-76
2021/11/25 01:06:24;;;;;;;11.37;9.30;;;;;;;6.05;79.40;101464.50;4970733;28;20189;-75
2021/11/25 01:08:50;;;;;;;12.37;10.43;;;;;;;6.05;79.60;101466.16;4954565;28;20758;-75
2021/11/25 01:11:15;;;;;;;12.70;10.47;;;;;;;6.05;80.08;101469.56;4971055;28;20251;-75
2021/11/25 01:13:41;;;;;;;12.80;10.07;;;;;;;6.06;79.51;101460.25;4970837;28;20188;-75
2021/11/25 01:16:07;;;;;;;13.17;10.10;;;;;;;6.02;79.80;101460.91;4971065;28;20189;-76
2021/11/25 01:18:33;;;;;;;11.80;10.17;;;;;;;6.02;79.61;101456.72;4970144;28;20199;-74
2021/11/25 01:20:58;;;;;;;13.50;10.40;;;;;;;6.06;79.51;101457.72;4969524;28;20220;-76
2021/11/25 01:23:28;;;;;;;11.60;8.97;;;;;;;6.06;79.70;101458.59;4971780;28;20668;-75
2021/11/25 01:25:55;;;;;;;12.67;9.93;;;;;;;6.05;79.54;101448.34;4971610;28;20196;-75
2021/11/25 01:28:22;;;;;;;10.83;9.60;;;;;;;6.04;80.28;101460.19;4970091;28;20200;-75
2021/11/25 01:30:51;;;;;;;11.90;9.53;;;;;;;6.05;79.20;101461.06;4971403;28;20228;-75
2021/11/25 01:33:18;;;;;;;13.17;9.83;;;;;;;6.03;80.09;101453.34;4969477;28;20185;-75
2021/11/25 01:35:44;;;;;;;12.30;9.77;;;;;;;5.99;80.23;101453.16;4970031;28;20188;-75
2021/11/25 01:38:11;;;;;;;12.40;9.70;;;;;;;6.03;80.25;101452.50;4969887;28;20185;-75
2021/11/25 01:40:38;;;;;;;12.13;9.30;;;;;;;6.00;80.50;101442.19;4970016;28;20586;-75
2021/11/25 01:43:04;;;;;;;11.60;9.57;;;;;;;5.98;80.57;101439.56;4970040;28;20603;-75
2021/11/25 01:45:30;;;;;;;11.37;9.03;;;;;;;5.97;79.93;101434.41;4970702;28;20212;-75
2021/11/25 01:47:57;;;;;;;13.50;8.77;;;;;;;5.96;79.79;101418.31;4953014;28;20235;-76
2021/11/25 01:50:24;;;;;;;10.70;8.33;;;;;;;5.98;80.51;101416.69;4971057;28;20200;-75
2021/11/25 01:52:49;;;;;;;11.37;9.33;;;;;;;6.00;80.19;101412.56;4971079;28;20267;-75
2021/11/25 01:55:18;;;;;;;10.07;8.60;;;;;;;6.01;79.47;101411.75;4971001;28;20646;-75
2021/11/25 01:57:44;;;;;;;11.70;8.97;;;;;;;6.01;80.01;101405.78;4969766;28;20222;-76
2021/11/25 02:00:18;;;;;;;14.23;10.03;;;;;;;6.00;80.95;101407.50;4970637;28;20210;-75
2021/11/25 02:02:43;;;;;;;10.57;8.90;;;;;;;5.98;81.14;101401.44;4970444;28;20188;-76
2021/11/25 02:05:10;;;;;;;9.40;8.40;;;;;;;5.97;81.07;101403.91;4970851;28;20212;-75
2021/11/25 02:07:36;;;;;;;11.23;8.53;;;;;;;5.93;79.83;101395.28;4969385;28;20843;-75
2021/11/25 02:10:05;;;;;;;10.60;8.50;;;;;;;5.96;80.80;101392.00;4970605;28;20279;-75
2021/11/25 02:12:31;;;;;;;12.20;9.53;;;;;;;5.97;81.04;101383.56;4970854;28;20195;-75
2021/11/25 02:14:56;;;;;;;10.63;9.47;;;;;;;5.96;81.30;101382.72;4969451;28;20192;-75
2021/11/25 02:17:22;;;;;;;11.10;8.67;;;;;;;5.99;81.24;101385.38;4970253;28;20212;-76
2021/11/25 02:19:49;;;;;;;12.00;8.93;;;;;;;5.96;81.82;101385.28;4949651;28;20274;-75
2021/11/25 02:22:14;;;;;;;9.73;8.00;;;;;;;5.97;81.73;101374.28;4950179;29;20196;-75
2021/11/25 02:24:40;;;;;;;11.77;8.73;;;;;;;5.96;81.82;101375.09;4949990;29;20205;-75
2021/11/25 02:27:05;;;;;;;10.70;8.63;;;;;;;5.98;81.42;101375.19;4951464;28;20685;-74
2021/11/25 02:29:31;;;;;;;10.87;8.87;;;;;;;5.96;82.25;101371.69;4951233;28;20261;-75
2021/11/25 02:31:56;;;;;;;12.77;8.93;;;;;;;5.91;83.20;101368.94;4951577;28;20181;-75
2021/11/25 02:34:22;;;;;;;11.17;8.43;;;;;;;5.92;82.85;101368.13;4964508;28;20548;-75
2021/11/25 02:36:48;;;;;;;11.87;9.07;;;;;;;5.95;83.15;101350.47;4969134;28;20188;-76
2021/11/25 02:39:14;;;;;;;10.47;8.50;;;;;;;5.97;82.83;101343.81;4970283;28;20199;-75
2021/11/25 02:41:40;;;;;;;11.03;8.47;;;;;;;5.95;81.96;101344.53;4953069;28;20192;-75
2021/11/25 02:44:06;;;;;;;10.97;8.57;;;;;;;5.95;81.83;101332.69;4967435;28;20227;-74
2021/11/25 02:46:31;;;;;;;10.67;8.17;;;;;;;5.94;82.26;101333.47;4970206;28;20836;-75
2021/11/25 02:48:59;;;;;;;10.20;8.10;;;;;;;5.95;83.03;101329.28;4970198;28;20240;-76
2021/11/25 02:51:28;;;;;;;10.60;8.30;;;;;;;5.94;82.70;101325.88;4970168;28;20195;-75
2021/11/25 02:53:54;;;;;;;9.53;8.33;;;;;;;5.93;82.70;101320.69;4969195;28;20176;-75
2021/11/25 02:56:23;;;;;;;10.57;8.57;;;;;;;5.91;82.69;101320.66;4970399;28;20203;-76
2021/11/25 02:58:50;;;;;;;11.20;8.60;;;;;;;5.86;82.73;101322.13;4971228;28;20195;-74
2021/11/25 03:01:30;;;;;;;9.00;7.63;;;;;;;5.88;83.32;101315.44;4974239;28;20188;-75
2021/11/25 03:03:57;;;;;;;11.83;8.30;;;;;;;5.89;83.61;101312.06;4974159;28;20254;-75
2021/11/25 03:06:24;;;;;;;10.00;7.90;;;;;;;5.92;83.29;101309.69;4973751;28;20188;-75
2021/11/25 03:08:50;;;;;;;12.00;8.90;;;;;;;5.92;82.90;101311.34;4972564;28;20200;-74
2021/11/25 03:11:18;;;;;;;11.50;9.17;;;;;;;5.93;83.78;101303.78;4956792;28;20204;-75
2021/11/25 03:13:47;;;;;;;13.47;9.67;;;;;;;5.92;83.42;101298.63;4974066;28;20191;-75
2021/11/25 03:16:15;;;;;;;10.20;8.57;;;;;;;5.90;83.68;101296.03;4974014;28;20665;-75
2021/11/25 03:18:41;;;;;;;11.47;8.87;;;;;;;5.89;83.15;101290.91;4972108;28;20576;-75
2021/11/25 03:21:07;;;;;;;10.53;8.60;;;;;;;5.90;83.60;101290.09;4972008;28;20850;-75
2021/11/25 03:23:35;;;;;;;16.67;9.53;;;;;;;5.91;84.17;101295.25;4973630;28;20197;-75
2021/11/25 03:26:04;;;;;;;12.30;9.63;;;;;;;5.89;84.32;101286.66;4973699;28;20202;-75
2021/11/25 03:28:29;;;;;;;13.27;9.53;;;;;;;5.87;84.62;101283.19;4971936;28;20321;-75
2021/11/25 03:30:55;;;;;;;12.70;9.10;;;;;;;5.86;83.68;101280.59;4945393;28;20303;-75
2021/11/25 03:33:27;;;;;;;11.97;9.07;;;;;;;5.86;84.11;101280.59;4973839;28;20244;-75
2021/11/25 03:35:54;;;;;;;10.37;8.87;;;;;;;5.86;83.73;101275.50;4958375;28;20200;-75
2021/11/25 03:38:20;;;;;;;11.27;9.70;;;;;;;5.85;83.90;101277.16;4937304;28;20178;-76
2021/11/25 03:40:45;;;;;;;13.63;11.00;;;;;;;5.83;84.24;101273.69;4974078;28;20227;-74
2021/11/25 03:43:11;;;;;;;12.00;9.40;;;;;;;5.83;83.86;101262.66;4972743;28;20215;-75
2021/11/25 03:45:37;;;;;;;13.33;10.80;;;;;;;5.77;83.82;101249.66;4973531;28;20212;-75
2021/11/25 03:48:03;;;;;;;13.23;10.17;;;;;;;5.73;84.00;101235.94;4973121;28;20679;-75
2021/11/25 03:50:28;;;;;;;13.77;10.33;;;;;;;5.67;83.48;101228.03;4973385;28;20216;-75
2021/11/25 03:52:55;;;;;;;14.43;11.30;;;;;;;5.67;83.71;101219.56;4973123;28;20243;-75
2021/11/25 03:55:21;;;;;;;13.80;11.33;;;;;;;5.67;83.82;101227.19;4973199;28;20180;-74
2021/11/25 03:57:48;;;;;;;13.33;10.60;;;;;;;5.61;82.92;101217.63;4971784;28;20192;-76
2021/11/25 04:00:17;;;;;;;12.53;9.83;;;;;;;5.64;83.35;101230.47;4971862;28;20267;-75
2021/11/25 04:02:43;;;;;;;13.50;10.80;;;;;;;5.59;83.13;101224.31;4973147;28;20191;-75
2021/11/25 04:05:10;;;;;;;12.87;10.00;;;;;;;5.60;82.57;101225.16;4972225;28;20224;-75
2021/11/25 04:07:35;;;;;;;13.70;10.37;;;;;;;5.64;82.59;101230.47;4972915;28;20199;-75
2021/11/25 04:10:01;;;;;;;14.73;11.40;;;;;;;5.61;82.38;101224.38;4972171;28;20204;-75
2021/11/25 04:12:27;;;;;;;12.87;10.07;;;;;;;5.62;82.21;101216.81;4971711;28;20189;-76
2021/11/25 04:14:52;;;;;;;11.43;9.93;;;;;;;5.58;82.03;101220.00;4972782;28;20286;-75
2021/11/25 04:17:21;;;;;;;10.53;9.27;;;;;;;5.59;82.26;101213.28;4972918;28;20223;-74
2021/11/25 04:19:47;;;;;;;13.03;10.87;;;;;;;5.61;82.51;101220.16;4972397;28;20208;-76
2021/11/25 04:22:13;;;;;;;13.93;10.17;;;;;;;5.58;82.22;101230.16;4971351;28;20625;-75
2021/11/25 04:24:38;;;;;;;13.63;10.63;;;;;;;5.58;82.36;101227.63;4972699;28;20224;-76
2021/11/25 04:27:04;;;;;;;12.20;10.57;;;;;;;5.59;82.05;101226.84;4972831;28;20211;-75
2021/11/25 04:29:30;;;;;;;12.57;10.37;;;;;;;5.53;82.43;101218.94;4971127;28;20215;-75
2021/11/25 04:37:23;;;;;;;12.87;10.10;;;;;;;5.53;82.71;101206.22;4971198;28;20188;-75
2021/11/25 04:39:49;;;;;;;12.77;10.70;;;;;;;5.55;82.37;101202.13;4954746;28;20201;-75
2021/11/25 04:42:17;;;;;;;16.53;10.83;;;;;;;5.51;82.63;101195.16;4972532;28;20192;-75
2021/11/25 04:44:42;;;;;;;13.40;10.23;;;;;;;5.48;82.96;101200.09;4971037;28;20220;-75
2021/11/25 04:47:10;;;;;;;12.87;10.23;;;;;;;5.48;83.25;101191.63;4986846;28;20193;-75
2021/11/25 04:49:35;;;;;;;13.30;10.10;;;;;;;5.49;82.83;101190.81;4970788;28;20244;-74
2021/11/25 04:52:01;;;;;;;13.50;10.70;;;;;;;5.47;83.78;101192.38;4972547;28;20242;-75
2021/11/25 04:54:27;;;;;;;13.23;10.77;;;;;;;5.46;83.72;101190.66;4970919;28;20184;-74
2021/11/25 04:56:52;;;;;;;11.33;10.00;;;;;;;5.46;83.66;101191.53;4987174;28;20251;-74
2021/11/25 04:59:18;;;;;;;14.77;9.97;;;;;;;5.47;83.66;101190.72;4970366;28;20223;-75
2021/11/25 05:01:43;;;;;;;13.33;10.47;;;;;;;5.45;83.81;101186.38;4972079;28;20239;-74
2021/11/25 05:04:08;;;;;;;11.63;9.83;;;;;;;5.44;84.10;101193.13;4970402;28;20344;-75
2021/11/25 05:06:36;;;;;;;12.67;10.10;;;;;;;5.43;83.84;101195.63;4970640;28;20180;-74
2021/11/25 05:09:02;;;;;;;12.93;9.33;;;;;;;5.45;83.73;101188.94;4971646;28;20196;-74
2021/11/25 05:11:27;;;;;;;12.37;10.13;;;;;;;5.44;83.52;101188.03;4972030;28;20212;-74
2021/11/25 05:13:53;;;;;;;10.90;9.30;;;;;;;5.41;83.70;101192.13;4971944;28;20279;-74
2021/11/25 05:16:18;;;;;;;11.87;10.17;;;;;;;5.42;83.54;101183.69;4970509;28;20188;-75
2021/11/25 05:18:44;;;;;;;11.87;9.33;;;;;;;5.42;84.29;101187.13;4953751;28;20219;-74
2021/11/25 05:21:10;;;;;;;13.97;9.83;;;;;;;5.39;84.17;101176.81;4968755;28;20693;-73
2021/11/25 05:23:35;;;;;;;13.20;10.00;;;;;;;5.41;84.43;101175.22;4971505;28;20267;-74
2021/11/25 05:26:01;;;;;;;11.50;9.80;;;;;;;5.41;84.39;101165.06;4970257;28;20239;-74
2021/11/25 05:28:26;;;;;;;14.00;10.13;;;;;;;5.41;83.99;101161.66;4970007;28;20246;-74
2021/11/25 05:30:52;;;;;;;12.70;10.30;;;;;;;5.42;84.13;101169.34;4986256;28;20375;-73
2021/11/25 05:33:17;;;;;;;13.03;10.60;;;;;;;5.44;84.47;101151.66;4969842;28;20180;-74
2021/11/25 05:35:43;;;;;;;15.03;10.17;;;;;;;5.44;84.06;101160.13;4970127;28;20673;-75
2021/11/25 05:38:09;;;;;;;12.80;10.83;;;;;;;5.43;84.98;101160.94;4970397;28;20228;-75
2021/11/25 05:40:35;;;;;;;14.00;10.43;;;;;;;5.42;84.84;101160.84;4971241;28;20315;-74
2021/11/25 05:43:00;;;;;;;13.60;10.90;;;;;;;5.39;84.35;101153.97;4970106;28;20220;-74
2021/11/25 05:45:26;;;;;;;13.00;11.03;;;;;;;5.34;84.75;101152.03;4970961;28;20204;-74
2021/11/25 05:47:53;;;;;;;11.90;10.10;;;;;;;5.36;84.90;101148.78;4969292;28;20619;-74
2021/11/25 05:50:24;;;;;;;14.07;10.03;;;;;;;5.38;85.49;101154.78;4969707;28;20205;-75
2021/11/25 05:52:53;;;;;;;14.83;10.30;;;;;;;5.36;84.80;101146.25;4969791;28;20239;-75
2021/11/25 05:55:23;;;;;;;15.13;10.47;;;;;;;5.36;84.80;101150.44;4971113;28;20184;-74
2021/11/25 05:57:49;;;;;;;12.87;10.40;;;;;;;5.35;84.60;101144.47;4972080;28;20196;-71
2021/11/25 06:00:15;;;;;;;11.87;9.70;;;;;;;5.37;84.94;101131.84;4971075;28;20216;-73
2021/11/25 06:02:44;;;;;;;14.13;10.00;;;;;;;5.40;84.95;101137.06;4971247;28;20235;-75
2021/11/25 06:05:10;;;;;;;12.77;10.37;;;;;;;5.38;85.48;101129.38;4969961;28;20255;-75
2021/11/25 06:07:37;;;;;;;15.13;11.13;;;;;;;5.31;84.91;101121.44;4953202;28;20688;-74
2021/11/25 06:10:03;;;;;;;11.67;10.40;;;;;;;5.29;84.90;101126.44;4969413;28;20219;-74
2021/11/25 06:12:29;;;;;;;12.80;11.00;;;;;;;5.21;85.04;101121.84;4970726;28;20666;-75
2021/11/25 06:14:54;;;;;;;13.40;10.60;;;;;;;5.19;84.74;101118.34;4950235;29;20196;-75
2021/11/25 06:17:20;;;;;;;12.47;10.60;;;;;;;5.22;84.67;101113.41;4951566;29;20284;-74
2021/11/25 06:19:45;;;;;;;14.43;11.30;;;;;;;5.20;84.38;101110.81;4951122;28;20217;-74
2021/11/25 06:22:12;;;;;;;13.00;10.87;;;;;;;5.22;84.52;101114.28;4951470;28;20260;-75
2021/11/25 06:24:38;;;;;;;12.07;10.13;;;;;;;5.21;83.67;101111.69;4950046;29;20216;-75
2021/11/25 06:27:04;;;;;;;13.70;10.17;;;;;;;5.19;84.14;101104.00;4966750;28;20191;-75
2021/11/25 06:29:29;;;;;;;14.93;10.87;;;;;;;5.08;84.67;101105.19;4970441;28;20212;-75
2021/11/25 06:31:55;;;;;;;13.57;10.83;;;;;;;5.04;85.35;101099.91;4969120;28;20205;-75
2021/11/25 06:34:20;;;;;;;14.63;11.27;;;;;;;5.01;84.80;101095.56;4970679;28;20184;-75
2021/11/25 06:36:46;;;;;;;13.73;11.30;;;;;;;5.02;84.99;101102.34;4969259;28;20201;-74
2021/11/25 06:39:11;;;;;;;14.17;11.03;;;;;;;5.01;84.13;101105.69;4970258;28;20204;-74
2021/11/25 06:41:37;;;;;;;11.83;10.17;;;;;;;5.02;84.67;101094.75;4970305;28;20184;-75
2021/11/25 06:44:03;;;;;;;12.90;10.73;;;;;;;5.05;84.78;101099.97;4969199;28;20685;-74
2021/11/25 06:46:28;;;;;;;13.33;10.60;;;;;;;5.02;84.12;101096.44;4969268;28;20184;-75
2021/11/25 06:48:54;;;;;;;13.57;11.13;;;;;;;5.06;83.93;101100.84;4968916;28;20283;-74
2021/11/25 06:51:19;;;;;;;15.90;11.37;;;;;;;4.97;84.35;101091.13;4970470;28;20181;-75
2021/11/25 06:53:46;;;;;;;16.03;11.83;;;;;;;4.98;83.94;101086.94;4970497;28;20289;-74
2021/11/25 06:56:12;;;;;;;16.23;11.43;;;;;;;5.03;84.48;101080.41;4968982;28;20192;-73
2021/11/25 06:58:38;;;;;;;11.60;10.23;;;;;;;5.01;84.49;101085.41;4968979;28;20632;-74
2021/11/25 07:01:07;;;;;;;12.10;10.23;;;;;;;5.05;84.08;101083.88;4969216;28;20263;-75
2021/11/25 07:03:33;;;;;;;12.50;10.53;;;;;;;5.04;84.16;101083.00;4970358;28;20184;-74
2021/11/25 07:05:59;;;;;;;13.60;10.37;;;;;;;5.05;84.00;101078.78;4970315;28;20239;-75
2021/11/25 07:08:25;;;;;;;13.50;10.43;;;;;;;5.01;84.40;101074.41;4970310;28;20184;-74
2021/11/25 07:10:50;;;;;;;11.57;10.13;;;;;;;4.97;84.88;101063.22;4970371;28;20216;-74
2021/11/25 07:13:16;;;;;;;14.63;11.10;;;;;;;4.99;84.32;101059.09;4969502;28;20688;-74
2021/11/25 07:15:41;;;;;;;14.00;10.87;;;;;;;5.00;84.40;101063.38;4969370;28;20276;-74
2021/11/25 07:18:07;;;;;;;13.60;10.73;;;;;;;5.02;84.71;101059.22;4970607;28;20263;-74
2021/11/25 07:20:32;;;;;;;12.73;10.97;;;;;;;5.05;84.71;101059.38;4969343;28;20760;-74
2021/11/25 07:22:58;;;;;;;12.13;10.27;;;;;;;5.03;83.86;101049.97;4970699;28;20677;-74
2021/11/25 07:25:25;;;;;;;12.97;10.50;;;;;;;5.01;83.80;101054.09;4970321;28;20577;-75
2021/11/25 07:27:51;;;;;;;13.07;10.83;;;;;;;5.00;83.66;101058.31;4970195;28;20263;-74
2021/11/25 07:30:19;;;;;;;14.83;11.10;;;;;;;5.04;83.74;101055.09;4970071;28;20697;-74
2021/11/25 07:32:45;;;;;;;13.37;10.73;;;;;;;5.01;83.50;101062.56;4970049;28;20200;-75
2021/11/25 07:35:12;;;;;;;12.57;10.37;;;;;;;5.06;83.09;101062.78;4969543;28;20708;-74
2021/11/25 07:37:38;;;;;;;12.83;10.30;;;;;;;5.00;83.16;101054.88;4969966;28;20199;-75
2021/11/25 07:40:05;;;;;;;15.00;11.13;;;;;;;5.04;82.80;101052.56;4969451;28;20189;-74
2021/11/25 07:42:31;;;;;;;14.03;10.90;;;;;;;5.06;82.61;101040.81;4968822;28;20255;-74
2021/11/25 07:44:56;;;;;;;13.53;11.00;;;;;;;5.11;82.66;101030.88;4972187;28;20220;-74
2021/11/25 07:47:30;;;;;;;14.13;10.53;;;;;;;5.13;82.45;101034.34;4988445;28;20305;-74
2021/11/25 07:49:56;;;;;;;14.10;10.53;;;;;;;5.09;82.57;101035.88;4973099;28;20302;-75
2021/11/25 07:52:21;;;;;;;12.90;10.93;;;;;;;5.11;82.39;101038.47;4972119;28;20263;-74
2021/11/25 07:54:47;;;;;;;15.20;11.73;;;;;;;5.15;82.23;101032.75;4971770;28;20223;-74
2021/11/25 07:57:12;;;;;;;14.73;11.53;;;;;;;5.16;81.88;101032.78;4971943;28;20541;-74
2021/11/25 07:59:38;;;;;;;15.60;11.73;;;;;;;5.22;82.47;101017.84;4973230;28;20227;-74
2021/11/25 08:02:04;;;;;;;14.47;11.43;;;;;;;5.28;81.21;101012.13;4973080;28;20184;-74
2021/11/25 08:04:30;;;;;;;16.60;11.87;;;;;;;5.36;81.20;101019.31;4971853;28;20561;-73
2021/11/25 08:06:55;;;;;;;16.10;12.10;;;;;;;5.42;80.55;101018.66;4972070;28;20263;-75
2021/11/25 08:09:21;;;;;;;13.23;11.43;;;;;;;5.49;80.33;101008.88;4971394;28;20291;-74
2021/11/25 08:11:46;;;;;;;14.13;10.83;;;;;;;5.54;79.76;101007.38;4973066;28;20216;-75
2021/11/25 08:14:12;;;;;;;13.40;11.60;;;;;;;5.61;79.03;101001.75;4973068;28;20270;-75
2021/11/25 08:16:38;;;;;;;15.77;11.53;;;;;;;5.69;79.22;100994.44;4971643;28;20180;-75
2021/11/25 08:19:05;;;;;;;13.90;10.90;;;;;;;5.70;79.00;100998.69;4972525;28;20184;-75
2021/11/25 08:21:31;;;;;;;16.03;11.97;;;;;;;5.74;78.55;100993.81;4973009;28;20235;-74
2021/11/25 08:23:56;;;;;;;15.57;11.37;;;;;;;5.77;77.88;100993.97;4955572;28;20183;-74
2021/11/25 08:26:22;;;;;;;16.23;12.27;;;;;;;5.80;78.59;101008.47;4972615;28;20199;-74
2021/11/25 08:28:47;;;;;;;16.07;12.70;;;;;;;5.81;77.81;101002.59;4972808;28;20270;-74
2021/11/25 08:31:13;;;;;;;19.63;13.83;;;;;;;5.76;76.29;100996.44;4956390;28;20489;-73
2021/11/25 08:33:38;;;;;;;18.20;13.13;;;;;;;5.83;76.64;100981.53;4969021;28;20196;-75
2021/11/25 08:36:04;;;;;;;23.17;14.50;;;;;;;5.87;75.69;100977.44;4974626;28;20223;-75
2021/11/25 08:38:31;;;;;;;21.90;14.43;;;;;;;5.86;75.23;100978.25;4971627;28;20243;-74
2021/11/25 08:40:57;;;;;;;18.80;14.43;;;;;;;5.85;75.10;100972.28;4977483;28;20200;-74
2021/11/25 08:43:23;;;;;;;21.83;15.67;;;;;;;5.87;75.36;100980.84;4971471;28;20181;-74
2021/11/25 08:45:49;;;;;;;20.63;14.97;;;;;;;5.92;75.42;100970.84;4976724;28;20201;-75
2021/11/25 08:48:14;;;;;;;22.83;16.23;;;;;;;5.97;74.35;100974.44;4970282;28;20810;-74
2021/11/25 08:50:41;;;;;;;22.90;16.33;;;;;;;6.04;74.94;100968.81;4983729;28;20708;-75
2021/11/25 08:53:07;;;;;;;23.07;16.37;;;;;;;6.06;74.55;100957.88;4974710;28;20181;-75
2021/11/25 08:55:35;;;;;;;24.77;18.03;;;;;;;6.09;74.74;100958.03;4971520;28;20219;-75
2021/11/25 08:58:04;;;;;;;28.47;18.17;;;;;;;6.11;74.77;100961.47;4970149;28;20204;-74
2021/11/25 09:00:33;;;;;;;23.63;17.27;;;;;;;6.12;74.87;100963.19;4971624;28;20201;-74
2021/11/25 09:02:59;;;;;;;25.87;17.87;;;;;;;6.08;74.65;100963.88;4969097;28;20188;-76
2021/11/25 09:05:25;;;;;;;25.77;18.57;;;;;;;6.12;74.62;100958.13;4971353;28;20212;-76
2021/11/25 09:07:51;;;;;;;26.70;20.13;;;;;;;6.11;74.47;100953.84;4971019;28;20192;-74
2021/11/25 09:10:16;;;;;;;32.20;20.37;;;;;;;6.30;73.85;100942.69;4963052;28;20205;-74
2021/11/25 09:12:42;;;;;;;32.30;20.70;;;;;;;6.42;73.67;100940.63;4956006;28;20272;-74
2021/11/25 09:15:08;;;;;;;29.03;20.60;;;;;;;6.71;72.69;100940.88;4967933;28;20568;-74
2021/11/25 09:17:35;;;;;;;27.63;20.47;;;;;;;6.89;71.74;100930.47;4971454;28;20185;-73
2021/11/25 09:20:02;;;;;;;29.57;20.37;;;;;;;7.14;71.38;100928.81;4971724;28;20216;-74
2021/11/25 09:22:28;;;;;;;28.60;20.20;;;;;;;7.18;70.58;100925.56;4971756;28;20230;-74
2021/11/25 09:24:53;;;;;;;29.70;21.90;;;;;;;7.13;71.00;100929.66;4971447;28;20232;-74
2021/11/25 09:27:19;;;;;;;32.17;22.57;;;;;;;6.91;71.73;100936.50;4970207;28;20192;-74
2021/11/25 09:29:44;;;;;;;33.90;23.40;;;;;;;6.74;72.47;100929.94;4977405;28;20208;-74
2021/11/25 09:32:10;;;;;;;32.93;22.10;;;;;;;6.68;72.57;100935.66;4975816;28;20185;-74
2021/11/25 09:34:36;;;;;;;32.87;23.63;;;;;;;6.75;72.85;100932.53;4969704;28;20199;-74
2021/11/25 09:37:02;;;;;;;33.07;23.00;;;;;;;6.84;72.78;100929.44;4969722;28;20267;-75
2021/11/25 09:39:27;;;;;;;34.17;22.73;;;;;;;6.87;73.46;100930.41;4970474;28;20219;-74
2021/11/25 09:41:54;;;;;;;34.63;23.00;;;;;;;6.82;73.11;100931.94;4970629;28;20192;-74
2021/11/25 09:44:21;;;;;;;31.67;21.53;;;;;;;6.76;73.55;100929.19;4971244;28;20240;-75
2021/11/25 09:46:51;;;;;;;32.97;21.93;;;;;;;6.75;73.42;100932.53;4970496;28;20192;-75
2021/11/25 09:49:20;;;;;;;37.47;23.73;;;;;;;6.82;73.49;100926.84;4970389;28;20271;-74
2021/11/25 09:51:46;;;;;;;33.63;23.30;;;;;;;6.90;73.85;100932.19;4969150;28;20733;-75
2021/11/25 09:54:11;;;;;;;36.17;22.47;;;;;;;6.92;73.23;100939.09;4970845;28;20275;-74
2021/11/25 09:56:37;;;;;;;35.30;23.70;;;;;;;6.75;73.36;100929.13;4970776;28;20219;-75
2021/11/25 09:59:02;;;;;;;38.10;23.80;;;;;;;6.78;75.00;100925.00;4970226;28;20665;-74
2021/11/25 10:01:28;;;;;;;33.73;23.57;;;;;;;6.81;74.31;100926.81;4952421;28;20279;-74
2021/11/25 10:03:54;;;;;;;36.47;24.70;;;;;;;6.74;73.80;100922.31;4970130;28;20195;-74
2021/11/25 10:06:29;;;;;;;37.20;23.70;;;;;;;6.72;74.36;100931.56;4968594;28;20192;-72
2021/11/25 10:08:55;;;;;;;37.67;24.53;;;;;;;6.73;74.41;100923.97;4951006;28;20180;-75
2021/11/25 10:11:28;;;;;;;37.47;24.60;;;;;;;6.71;73.38;100920.53;4970596;28;20716;-74
2021/11/25 10:13:57;;;;;;;36.70;24.23;;;;;;;6.73;74.50;100908.69;4969862;28;20224;-74
2021/11/25 10:16:30;;;;;;;39.93;25.30;;;;;;;6.69;74.94;100906.91;4967467;28;20188;-74
2021/11/25 10:18:58;;;;;;;37.50;25.30;;;;;;;6.71;75.28;100902.72;4952528;28;20215;-70
2021/11/25 10:21:26;;;;;;;42.07;26.30;;;;;;;6.69;75.51;100893.28;4970504;28;20192;-71
2021/11/25 10:23:54;;;;;;;37.53;24.83;;;;;;;6.62;75.77;100886.25;4969061;28;20216;-74
2021/11/25 10:26:23;;;;;;;41.13;25.60;;;;;;;6.67;76.63;100893.22;4968923;28;20188;-75
2021/11/25 10:28:56;;;;;;;40.47;25.97;;;;;;;6.67;75.53;100898.31;4968063;28;20258;-75
2021/11/25 10:31:31;;;;;;;39.80;25.03;;;;;;;6.75;76.76;100894.38;4968455;28;20251;-72
2021/11/25 10:34:10;;;;;;;39.07;25.00;;;;;;;6.78;77.08;100896.16;4969755;28;20191;-73
2021/11/25 10:41:58;;;;;;;38.97;24.83;;;;;;;6.62;77.20;100874.41;4969898;28;20231;-74
2021/11/25 10:44:29;;;;;;;39.27;25.93;;;;;;;6.58;76.77;100872.56;4970053;28;20626;-75
2021/11/25 10:47:05;;;;;;;39.90;25.63;;;;;;;6.60;77.47;100876.03;4970135;28;20216;-74
2021/11/25 10:49:36;;;;;;;36.93;25.73;;;;;;;6.61;77.36;100859.06;4970130;28;20298;-74
2021/11/25 10:52:18;;;;;;;40.90;25.53;;;;;;;6.67;77.24;100847.44;4970011;28;20235;-74
2021/11/25 10:54:47;;;;;;;46.53;27.40;;;;;;;6.73;76.99;100844.25;4949943;29;20236;-74
2021/11/25 10:57:14;;;;;;;43.20;25.90;;;;;;;6.81;77.03;100845.38;4967944;28;20189;-75
2021/11/25 10:59:42;;;;;;;37.50;25.70;;;;;;;6.86;77.40;100839.63;4980077;28;20760;-74
2021/11/25 11:02:28;;;;;;;37.83;25.50;;;;;;;6.99;75.90;100828.16;4967901;28;20339;-74
2021/11/25 11:04:53;;;;;;;39.07;25.33;;;;;;;6.97;75.55;100829.81;4970187;28;20216;-75
2021/11/25 11:07:25;;;;;;;44.07;26.73;;;;;;;6.89;77.05;100831.22;4952248;28;20188;-74
2021/11/25 11:09:51;;;;;;;41.80;26.33;;;;;;;6.92;76.18;100829.66;4969353;28;20232;-74
2021/11/25 11:12:29;;;;;;;47.17;27.93;;;;;;;6.89;77.24;100837.19;4968539;28;20188;-74
2021/11/25 11:15:00;;;;;;;41.67;27.00;;;;;;;6.92;76.68;100824.56;4969584;28;20185;-72
2021/11/25 11:17:35;;;;;;;42.70;26.33;;;;;;;7.12;77.58;100826.09;4967881;28;20197;-75
2021/11/25 11:20:04;;;;;;;39.07;25.10;;;;;;;6.96;77.24;100823.84;4972125;28;20318;-75
2021/11/25 11:22:30;;;;;;;45.23;26.30;;;;;;;7.19;77.11;100832.25;4972234;28;20226;-74
2021/11/25 11:24:55;;;;;;;38.37;24.93;;;;;;;7.44;75.86;100824.56;4973361;28;20248;-74
2021/11/25 11:27:21;;;;;;;37.40;24.73;;;;;;;7.18;75.82;100822.88;4972775;28;20200;-75